PRIVATE WETTERSTATION BILLIGHEIM-ALLFELD                       ZURCK
Wetterdaten: Mittwoch, 12.02.2014
Datum Zeit Temp. A. Temp. A. min Temp. A. max Feuchte A. Luftdruck Regen Wind Richtung Richtung Sonnenschein ET Solar Taupunkt Windchill Windben Empfang
12.02.2014 00:00 0,6 C 0,6 C 0,6 C 86 % 1006,6 hPa 0,0 l/m 0,0 km/h (0 Bft) N 0 0 min 0,000 mm 0 W/m -1,5 C 0,6 C 0,0 km/h (0 Bft) 93 %
12.02.2014 00:10 0,4 C 0,4 C 0,6 C 86 % 1006,7 hPa 0,0 l/m 0,0 km/h (0 Bft) N 0 0 min 0,000 mm 0 W/m -1,7 C 0,4 C 0,0 km/h (0 Bft) 98 %
12.02.2014 00:20 0,3 C 0,3 C 0,4 C 86 % 1006,8 hPa 0,0 l/m 0,0 km/h (0 Bft) N 0 0 min 0,000 mm 0 W/m -1,8 C 0,3 C 0,0 km/h (0 Bft) 100 %
12.02.2014 00:30 0,3 C 0,2 C 0,3 C 86 % 1006,8 hPa 0,0 l/m 0,0 km/h (0 Bft) N 0 0 min 0,000 mm 0 W/m -1,8 C 0,3 C 0,0 km/h (0 Bft) 99 %
12.02.2014 00:40 0,2 C 0,2 C 0,2 C 86 % 1006,9 hPa 0,0 l/m 0,0 km/h (0 Bft) N 0 0 min 0,000 mm 0 W/m -1,9 C 0,2 C 0,0 km/h (0 Bft) 99 %
12.02.2014 00:50 -0,1 C -0,1 C 0,2 C 87 % 1006,9 hPa 0,0 l/m 0,0 km/h (0 Bft) SO 135 0 min 0,000 mm 0 W/m -2,0 C -0,1 C 1,6 km/h (1 Bft) 100 %
12.02.2014 01:00 -0,3 C -0,3 C -0,1 C 88 % 1007,0 hPa 0,0 l/m 0,0 km/h (0 Bft) N 0 0 min 0,000 mm 0 W/m -2,0 C -0,3 C 0,0 km/h (0 Bft) 98 %
12.02.2014 01:10 -0,1 C -0,3 C -0,1 C 88 % 1007,1 hPa 0,0 l/m 1,6 km/h (1 Bft) SO 135 0 min 0,000 mm 0 W/m -1,8 C -0,1 C 4,8 km/h (1 Bft) 100 %
12.02.2014 01:20 0,7 C -0,1 C 0,7 C 86 % 1007,2 hPa 0,0 l/m 1,6 km/h (1 Bft) SO 135 0 min 0,000 mm 0 W/m -1,4 C 0,7 C 4,8 km/h (1 Bft) 100 %
12.02.2014 01:30 0,9 C 0,7 C 0,9 C 85 % 1007,1 hPa 0,0 l/m 1,6 km/h (1 Bft) S-SO 157 0 min 0,000 mm 0 W/m -1,3 C 0,9 C 4,8 km/h (1 Bft) 99 %
12.02.2014 01:40 1,1 C 0,9 C 1,2 C 84 % 1007,2 hPa 0,0 l/m 1,6 km/h (1 Bft) S-SO 157 0 min 0,000 mm 0 W/m -1,3 C 1,1 C 6,4 km/h (2 Bft) 96 %
12.02.2014 01:50 0,7 C 0,6 C 1,1 C 84 % 1007,2 hPa 0,0 l/m 0,0 km/h (0 Bft) S-SO 157 0 min 0,000 mm 0 W/m -1,7 C 0,7 C 4,8 km/h (1 Bft) 89 %
12.02.2014 02:00 0,8 C 0,6 C 0,8 C 85 % 1007,2 hPa 0,0 l/m 1,6 km/h (1 Bft) S-SO 157 0 min 0,000 mm 0 W/m -1,4 C 0,8 C 4,8 km/h (1 Bft) 82 %
12.02.2014 02:10 0,9 C 0,8 C 0,9 C 85 % 1007,3 hPa 0,0 l/m 1,6 km/h (1 Bft) S-SO 157 0 min 0,000 mm 0 W/m -1,3 C 0,9 C 4,8 km/h (1 Bft) 93 %
12.02.2014 02:20 0,9 C 0,8 C 0,9 C 85 % 1007,3 hPa 0,0 l/m 1,6 km/h (1 Bft) S-SO 157 0 min 0,000 mm 0 W/m -1,3 C 0,9 C 6,4 km/h (2 Bft) 90 %
12.02.2014 02:30 0,8 C 0,8 C 0,9 C 85 % 1007,5 hPa 0,0 l/m 0,0 km/h (0 Bft) S-SO 157 0 min 0,000 mm 0 W/m -1,4 C 0,8 C 4,8 km/h (1 Bft) 99 %
12.02.2014 02:40 0,6 C 0,6 C 0,8 C 85 % 1007,5 hPa 0,0 l/m 1,6 km/h (1 Bft) S-SO 157 0 min 0,000 mm 0 W/m -1,6 C 0,6 C 4,8 km/h (1 Bft) 99 %
12.02.2014 02:50 0,6 C 0,6 C 0,7 C 86 % 1007,6 hPa 0,0 l/m 0,0 km/h (0 Bft) S-SO 157 0 min 0,000 mm 0 W/m -1,5 C 0,6 C 4,8 km/h (1 Bft) 100 %
12.02.2014 03:00 0,6 C 0,6 C 0,6 C 86 % 1007,6 hPa 0,0 l/m 1,6 km/h (1 Bft) S-SO 157 0 min 0,000 mm 0 W/m -1,5 C 0,6 C 4,8 km/h (1 Bft) 98 %
12.02.2014 03:10 0,6 C 0,6 C 0,6 C 86 % 1007,7 hPa 0,0 l/m 1,6 km/h (1 Bft) S-SO 157 0 min 0,000 mm 0 W/m -1,5 C 0,6 C 8,0 km/h (2 Bft) 100 %
12.02.2014 03:20 0,6 C 0,6 C 0,6 C 87 % 1007,7 hPa 0,0 l/m 1,6 km/h (1 Bft) S-SO 157 0 min 0,000 mm 0 W/m -1,3 C 0,6 C 6,4 km/h (2 Bft) 99 %
12.02.2014 03:30 0,6 C 0,6 C 0,6 C 87 % 1007,8 hPa 0,0 l/m 1,6 km/h (1 Bft) S-SO 157 0 min 0,000 mm 0 W/m -1,3 C 0,6 C 8,0 km/h (2 Bft) 98 %
12.02.2014 03:40 0,6 C 0,6 C 0,7 C 87 % 1007,9 hPa 0,0 l/m 1,6 km/h (1 Bft) S 180 0 min 0,000 mm 0 W/m -1,3 C 0,6 C 6,4 km/h (2 Bft) 92 %
12.02.2014 03:50 0,7 C 0,6 C 0,7 C 87 % 1008,0 hPa 0,0 l/m 1,6 km/h (1 Bft) S 180 0 min 0,000 mm 0 W/m -1,2 C 0,7 C 4,8 km/h (1 Bft) 95 %
12.02.2014 04:00 0,8 C 0,7 C 0,8 C 86 % 1007,9 hPa 0,0 l/m 3,2 km/h (1 Bft) S 180 0 min 0,000 mm 0 W/m -1,3 C 0,8 C 8,0 km/h (2 Bft) 100 %
12.02.2014 04:10 0,8 C 0,8 C 0,8 C 86 % 1008,0 hPa 0,0 l/m 1,6 km/h (1 Bft) S 180 0 min 0,000 mm 0 W/m -1,3 C 0,8 C 6,4 km/h (2 Bft) 99 %
12.02.2014 04:20 0,8 C 0,8 C 0,8 C 86 % 1008,1 hPa 0,0 l/m 3,2 km/h (1 Bft) S-SO 157 0 min 0,000 mm 0 W/m -1,3 C 0,8 C 8,0 km/h (2 Bft) 100 %
12.02.2014 04:30 0,9 C 0,8 C 0,9 C 86 % 1008,2 hPa 0,0 l/m 1,6 km/h (1 Bft) S-SO 157 0 min 0,000 mm 0 W/m -1,2 C 0,9 C 8,0 km/h (2 Bft) 99 %
12.02.2014 04:40 0,9 C 0,8 C 0,9 C 86 % 1008,2 hPa 0,0 l/m 1,6 km/h (1 Bft) S 180 0 min 0,000 mm 0 W/m -1,2 C 0,9 C 6,4 km/h (2 Bft) 100 %
12.02.2014 04:50 1,1 C 0,9 C 1,1 C 92 % 1008,4 hPa 0,0 l/m 1,6 km/h (1 Bft) S-SO 157 0 min 0,000 mm 0 W/m -0,1 C 1,1 C 6,4 km/h (2 Bft) 99 %
12.02.2014 05:00 1,1 C 1,1 C 1,1 C 87 % 1008,4 hPa 0,0 l/m 1,6 km/h (1 Bft) S-SO 157 0 min 0,000 mm 0 W/m -0,8 C 1,1 C 4,8 km/h (1 Bft) 100 %
12.02.2014 05:10 1,1 C 1,1 C 1,1 C 87 % 1008,5 hPa 0,0 l/m 1,6 km/h (1 Bft) S 180 0 min 0,000 mm 0 W/m -0,8 C 1,1 C 6,4 km/h (2 Bft) 99 %
12.02.2014 05:20 1,2 C 1,1 C 1,2 C 88 % 1008,7 hPa 0,0 l/m 3,2 km/h (1 Bft) SO 135 0 min 0,000 mm 0 W/m -0,6 C 1,2 C 6,4 km/h (2 Bft) 89 %
12.02.2014 05:30 1,0 C 1,0 C 1,2 C 88 % 1008,8 hPa 0,1 l/m 1,6 km/h (1 Bft) S-SO 157 0 min 0,000 mm 0 W/m -0,8 C 1,0 C 6,4 km/h (2 Bft) 100 %
12.02.2014 05:40 0,8 C 0,8 C 1,0 C 88 % 1009,0 hPa 0,0 l/m 1,6 km/h (1 Bft) S-SO 157 0 min 0,000 mm 0 W/m -1,0 C 0,8 C 4,8 km/h (1 Bft) 99 %
12.02.2014 05:50 0,7 C 0,7 C 0,8 C 88 % 1009,0 hPa 0,0 l/m 1,6 km/h (1 Bft) SO 135 0 min 0,000 mm 0 W/m -1,1 C 0,7 C 6,4 km/h (2 Bft) 100 %
12.02.2014 06:00 0,9 C 0,7 C 0,9 C 88 % 1009,1 hPa 0,0 l/m 4,8 km/h (1 Bft) SO 135 0 min 0,000 mm 0 W/m -0,9 C 0,9 C 9,7 km/h (2 Bft) 99 %
12.02.2014 06:10 1,2 C 0,9 C 1,2 C 88 % 1009,5 hPa 0,0 l/m 4,8 km/h (1 Bft) S-SO 157 0 min 0,000 mm 0 W/m -0,6 C 1,2 C 11,3 km/h (2 Bft) 100 %
12.02.2014 06:20 1,3 C 1,2 C 1,3 C 88 % 1009,6 hPa 0,0 l/m 4,8 km/h (1 Bft) SO 135 0 min 0,000 mm 0 W/m -0,5 C 1,3 C 11,3 km/h (2 Bft) 99 %
12.02.2014 06:30 1,4 C 1,3 C 1,4 C 88 % 1009,7 hPa 0,0 l/m 4,8 km/h (1 Bft) SO 135 0 min 0,000 mm 0 W/m -0,4 C 1,4 C 8,0 km/h (2 Bft) 99 %
12.02.2014 06:40 1,4 C 1,4 C 1,4 C 88 % 1009,9 hPa 0,0 l/m 4,8 km/h (1 Bft) SO 135 0 min 0,000 mm 0 W/m -0,4 C 1,4 C 9,7 km/h (2 Bft) 99 %
12.02.2014 06:50 1,7 C 1,4 C 1,7 C 88 % 1010,1 hPa 0,0 l/m 4,8 km/h (1 Bft) SO 135 0 min 0,000 mm 0 W/m -0,1 C 1,7 C 8,0 km/h (2 Bft) 90 %
12.02.2014 07:00 1,7 C 1,7 C 1,7 C 88 % 1010,4 hPa 0,0 l/m 6,4 km/h (2 Bft) SO 135 0 min 0,000 mm 0 W/m -0,1 C 1,7 C 11,3 km/h (2 Bft) 100 %
12.02.2014 07:10 1,7 C 1,7 C 1,8 C 88 % 1010,6 hPa 0,0 l/m 3,2 km/h (1 Bft) SO 135 0 min 0,000 mm 0 W/m -0,1 C 1,7 C 8,0 km/h (2 Bft) 100 %
12.02.2014 07:20 1,6 C 1,6 C 1,7 C 88 % 1010,8 hPa 0,0 l/m 0,0 km/h (0 Bft) S 180 0 min 0,000 mm 0 W/m -0,2 C 1,6 C 4,8 km/h (1 Bft) 99 %
12.02.2014 07:30 1,6 C 1,6 C 1,6 C 88 % 1011,0 hPa 0,0 l/m 0,0 km/h (0 Bft) W-SW 247 0 min 0,000 mm 0 W/m -0,2 C 1,6 C 6,4 km/h (2 Bft) 100 %
12.02.2014 07:40 1,8 C 1,6 C 1,8 C 89 % 1011,0 hPa 0,0 l/m 0,0 km/h (0 Bft) W 270 0 min 0,000 mm 0 W/m 0,2 C 1,8 C 4,8 km/h (1 Bft) 99 %
12.02.2014 07:50 1,8 C 1,8 C 1,9 C 89 % 1011,1 hPa 0,0 l/m 1,6 km/h (1 Bft) SW 225 0 min 0,000 mm 5 W/m 0,2 C 1,8 C 6,4 km/h (2 Bft) 100 %
12.02.2014 08:00 1,8 C 1,8 C 1,9 C 89 % 1011,1 hPa 0,0 l/m 4,8 km/h (1 Bft) S-SW 202 0 min 0,000 mm 11 W/m 0,2 C 1,8 C 8,0 km/h (2 Bft) 99 %
12.02.2014 08:10 1,4 C 1,4 C 1,9 C 88 % 1011,4 hPa 0,0 l/m 4,8 km/h (1 Bft) S-SW 202 0 min 0,000 mm 32 W/m -0,4 C 1,4 C 9,7 km/h (2 Bft) 99 %
12.02.2014 08:20 1,4 C 1,3 C 1,4 C 88 % 1011,4 hPa 0,0 l/m 6,4 km/h (2 Bft) S-SW 202 0 min 0,000 mm 46 W/m -0,4 C 1,4 C 9,7 km/h (2 Bft) 100 %
12.02.2014 08:30 1,9 C 1,4 C 1,9 C 88 % 1011,4 hPa 0,0 l/m 8,0 km/h (2 Bft) S-SW 202 0 min 0,000 mm 39 W/m 0,1 C 0,3 C 16,1 km/h (3 Bft) 100 %
12.02.2014 08:40 2,3 C 1,9 C 2,3 C 89 % 1011,5 hPa 0,0 l/m 6,4 km/h (2 Bft) S-SW 202 0 min 0,000 mm 56 W/m 0,7 C 2,3 C 11,3 km/h (2 Bft) 100 %
12.02.2014 08:50 2,6 C 2,3 C 2,6 C 89 % 1011,7 hPa 0,0 l/m 8,0 km/h (2 Bft) S-SW 202 0 min 0,000 mm 109 W/m 1,0 C 1,1 C 14,5 km/h (3 Bft) 100 %
12.02.2014 09:00 2,7 C 2,6 C 2,7 C 88 % 1011,9 hPa 0,0 l/m 4,8 km/h (1 Bft) S-SW 202 0 min 0,025 mm 62 W/m 0,9 C 2,7 C 9,7 km/h (2 Bft) 100 %
12.02.2014 09:10 2,7 C 2,7 C 2,7 C 88 % 1012,1 hPa 0,0 l/m 4,8 km/h (1 Bft) S 180 0 min 0,000 mm 37 W/m 0,9 C 2,7 C 11,3 km/h (2 Bft) 100 %
12.02.2014 09:20 2,7 C 2,6 C 2,7 C 88 % 1012,2 hPa 0,0 l/m 4,8 km/h (1 Bft) S-SW 202 0 min 0,000 mm 46 W/m 0,9 C 2,7 C 11,3 km/h (2 Bft) 100 %
12.02.2014 09:30 2,8 C 2,7 C 2,8 C 88 % 1012,2 hPa 0,0 l/m 4,8 km/h (1 Bft) S-SW 202 0 min 0,000 mm 62 W/m 1,0 C 2,8 C 14,5 km/h (3 Bft) 100 %
12.02.2014 09:40 2,9 C 2,8 C 2,9 C 88 % 1012,2 hPa 0,0 l/m 4,8 km/h (1 Bft) S-SW 202 0 min 0,000 mm 95 W/m 1,1 C 2,9 C 14,5 km/h (3 Bft) 100 %
12.02.2014 09:50 3,1 C 2,9 C 3,1 C 88 % 1012,3 hPa 0,0 l/m 6,4 km/h (2 Bft) S-SW 202 0 min 0,000 mm 100 W/m 1,3 C 3,1 C 16,1 km/h (3 Bft) 100 %
12.02.2014 10:00 3,3 C 3,1 C 3,3 C 88 % 1012,4 hPa 0,0 l/m 4,8 km/h (1 Bft) S 180 10 min 0,025 mm 230 W/m 1,5 C 3,3 C 11,3 km/h (2 Bft) 100 %
12.02.2014 10:10 3,5 C 3,3 C 3,5 C 88 % 1012,2 hPa 0,0 l/m 4,8 km/h (1 Bft) S-SW 202 0 min 0,000 mm 135 W/m 1,7 C 3,5 C 12,9 km/h (3 Bft) 91 %
12.02.2014 10:20 3,8 C 3,5 C 3,8 C 87 % 1012,1 hPa 0,0 l/m 6,4 km/h (2 Bft) S-SW 202 10 min 0,000 mm 197 W/m 1,8 C 3,8 C 16,1 km/h (3 Bft) 100 %
12.02.2014 10:30 4,0 C 3,8 C 4,0 C 86 % 1012,1 hPa 0,0 l/m 4,8 km/h (1 Bft) SW 225 0 min 0,000 mm 148 W/m 1,9 C 4,0 C 14,5 km/h (3 Bft) 100 %
12.02.2014 10:40 4,2 C 4,0 C 4,2 C 84 % 1012,1 hPa 0,0 l/m 6,4 km/h (2 Bft) SW 225 10 min 0,000 mm 153 W/m 1,7 C 4,2 C 16,1 km/h (3 Bft) 100 %
12.02.2014 10:50 4,3 C 4,2 C 4,3 C 82 % 1012,5 hPa 0,0 l/m 4,8 km/h (1 Bft) W-SW 247 0 min 0,000 mm 128 W/m 1,5 C 4,3 C 14,5 km/h (3 Bft) 100 %
12.02.2014 11:00 4,4 C 4,3 C 4,4 C 79 % 1012,4 hPa 0,0 l/m 8,0 km/h (2 Bft) W-SW 247 0 min 0,051 mm 128 W/m 1,1 C 3,0 C 17,7 km/h (3 Bft) 100 %
12.02.2014 11:10 4,6 C 4,4 C 4,6 C 79 % 1012,5 hPa 0,0 l/m 6,4 km/h (2 Bft) W-SW 247 0 min 0,000 mm 118 W/m 1,3 C 4,6 C 17,7 km/h (3 Bft) 100 %
12.02.2014 11:20 4,6 C 4,6 C 4,6 C 78 % 1012,5 hPa 0,0 l/m 9,7 km/h (2 Bft) W-SW 247 0 min 0,000 mm 113 W/m 1,1 C 1,8 C 27,4 km/h (4 Bft) 100 %
12.02.2014 11:30 4,7 C 4,6 C 4,7 C 79 % 1012,7 hPa 0,0 l/m 4,8 km/h (1 Bft) W-SW 247 0 min 0,000 mm 114 W/m 1,4 C 4,7 C 9,7 km/h (2 Bft) 100 %
12.02.2014 11:40 4,7 C 4,7 C 4,7 C 77 % 1012,7 hPa 0,0 l/m 9,7 km/h (2 Bft) W 270 0 min 0,000 mm 123 W/m 1,0 C 2,0 C 22,5 km/h (4 Bft) 100 %
12.02.2014 11:50 4,7 C 4,6 C 4,7 C 76 % 1012,7 hPa 0,0 l/m 12,9 km/h (3 Bft) W 270 0 min 0,000 mm 139 W/m 0,8 C -0,1 C 29,0 km/h (5 Bft) 100 %
12.02.2014 12:00 4,7 C 4,7 C 4,7 C 76 % 1012,8 hPa 0,0 l/m 8,0 km/h (2 Bft) W-SW 247 0 min 0,051 mm 132 W/m 0,8 C 3,3 C 22,5 km/h (4 Bft) 100 %
12.02.2014 12:10 4,7 C 4,7 C 4,7 C 74 % 1012,6 hPa 0,0 l/m 9,7 km/h (2 Bft) W-SW 247 0 min 0,000 mm 142 W/m 0,5 C 2,0 C 27,4 km/h (4 Bft) 100 %
12.02.2014 12:20 4,7 C 4,7 C 4,7 C 75 % 1012,6 hPa 0,0 l/m 9,7 km/h (2 Bft) W-SW 247 0 min 0,000 mm 148 W/m 0,7 C 2,0 C 25,7 km/h (4 Bft) 100 %
12.02.2014 12:30 4,8 C 4,7 C 4,8 C 76 % 1012,4 hPa 0,0 l/m 11,3 km/h (2 Bft) W-SW 247 10 min 0,000 mm 181 W/m 0,9 C 1,0 C 22,5 km/h (4 Bft) 100 %
12.02.2014 12:40 4,8 C 4,8 C 4,9 C 76 % 1012,3 hPa 0,0 l/m 11,3 km/h (2 Bft) SW 225 10 min 0,000 mm 185 W/m 0,9 C 1,0 C 22,5 km/h (4 Bft) 99 %
12.02.2014 12:50 4,9 C 4,8 C 4,9 C 74 % 1012,1 hPa 0,0 l/m 9,7 km/h (2 Bft) W-SW 247 10 min 0,000 mm 223 W/m 0,7 C 2,2 C 22,5 km/h (4 Bft) 100 %
12.02.2014 13:00 5,1 C 4,9 C 5,1 C 74 % 1012,1 hPa 0,0 l/m 8,0 km/h (2 Bft) W-SW 247 10 min 0,076 mm 227 W/m 0,9 C 3,7 C 17,7 km/h (3 Bft) 99 %
12.02.2014 13:10 5,3 C 5,1 C 5,3 C 74 % 1012,0 hPa 0,0 l/m 9,7 km/h (2 Bft) SW 225 10 min 0,000 mm 221 W/m 1,0 C 2,6 C 25,7 km/h (4 Bft) 100 %
12.02.2014 13:20 5,3 C 5,3 C 5,4 C 73 % 1011,9 hPa 0,0 l/m 4,8 km/h (1 Bft) W-SW 247 10 min 0,000 mm 160 W/m 0,9 C 5,3 C 16,1 km/h (3 Bft) 100 %
12.02.2014 13:30 5,4 C 5,3 C 5,4 C 73 % 1011,9 hPa 0,0 l/m 6,4 km/h (2 Bft) SW 225 10 min 0,000 mm 167 W/m 1,0 C 5,4 C 16,1 km/h (3 Bft) 100 %
12.02.2014 13:40 5,6 C 5,4 C 5,6 C 72 % 1011,5 hPa 0,0 l/m 8,0 km/h (2 Bft) W-SW 247 10 min 0,000 mm 325 W/m 1,0 C 4,2 C 19,3 km/h (3 Bft) 100 %
12.02.2014 13:50 5,8 C 5,6 C 5,8 C 69 % 1011,3 hPa 0,0 l/m 12,9 km/h (3 Bft) W-SW 247 10 min 0,000 mm 213 W/m 0,6 C 1,2 C 24,1 km/h (4 Bft) 100 %
12.02.2014 14:00 6,3 C 5,8 C 6,3 C 70 % 1011,2 hPa 0,0 l/m 4,8 km/h (1 Bft) W 270 10 min 0,102 mm 547 W/m 1,2 C 6,3 C 17,7 km/h (3 Bft) 100 %
12.02.2014 14:10 6,3 C 6,3 C 6,4 C 69 % 1011,1 hPa 0,0 l/m 6,4 km/h (2 Bft) SW 225 10 min 0,000 mm 169 W/m 1,0 C 6,3 C 17,7 km/h (3 Bft) 100 %
12.02.2014 14:20 6,5 C 6,3 C 6,6 C 69 % 1011,1 hPa 0,0 l/m 9,7 km/h (2 Bft) SW 225 10 min 0,000 mm 526 W/m 1,2 C 3,9 C 19,3 km/h (3 Bft) 100 %
12.02.2014 14:30 6,4 C 6,4 C 6,6 C 69 % 1011,1 hPa 0,0 l/m 9,7 km/h (2 Bft) S-SW 202 10 min 0,000 mm 160 W/m 1,1 C 3,8 C 24,1 km/h (4 Bft) 99 %
12.02.2014 14:40 6,2 C 6,2 C 6,3 C 68 % 1011,1 hPa 0,0 l/m 9,7 km/h (2 Bft) SW 225 0 min 0,000 mm 139 W/m 0,7 C 3,6 C 19,3 km/h (3 Bft) 100 %
12.02.2014 14:50 6,1 C 6,1 C 6,2 C 70 % 1010,9 hPa 0,0 l/m 6,4 km/h (2 Bft) SW 225 0 min 0,000 mm 95 W/m 1,0 C 6,1 C 16,1 km/h (3 Bft) 100 %
12.02.2014 15:00 6,1 C 6,1 C 6,1 C 70 % 1010,8 hPa 0,0 l/m 3,2 km/h (1 Bft) W-SW 247 0 min 0,076 mm 113 W/m 1,0 C 6,1 C 11,3 km/h (2 Bft) 91 %
12.02.2014 15:10 6,2 C 6,1 C 6,2 C 70 % 1010,7 hPa 0,0 l/m 4,8 km/h (1 Bft) W-SW 247 0 min 0,000 mm 127 W/m 1,1 C 6,2 C 9,7 km/h (2 Bft) 100 %
12.02.2014 15:20 6,3 C 6,2 C 6,3 C 69 % 1010,6 hPa 0,0 l/m 4,8 km/h (1 Bft) W-SW 247 0 min 0,000 mm 148 W/m 1,0 C 6,3 C 11,3 km/h (2 Bft) 100 %
12.02.2014 15:30 6,6 C 6,3 C 6,6 C 69 % 1010,5 hPa 0,0 l/m 4,8 km/h (1 Bft) SW 225 10 min 0,000 mm 271 W/m 1,3 C 6,6 C 9,7 km/h (2 Bft) 100 %
12.02.2014 15:40 7,3 C 6,6 C 7,3 C 65 % 1010,5 hPa 0,0 l/m 4,8 km/h (1 Bft) W-SW 247 10 min 0,000 mm 257 W/m 1,2 C 7,3 C 11,3 km/h (2 Bft) 100 %
12.02.2014 15:50 7,8 C 7,3 C 7,8 C 63 % 1010,2 hPa 0,0 l/m 6,4 km/h (2 Bft) SW 225 10 min 0,000 mm 234 W/m 1,2 C 7,8 C 16,1 km/h (3 Bft) 100 %
12.02.2014 16:00 7,9 C 7,8 C 7,9 C 62 % 1010,0 hPa 0,0 l/m 4,8 km/h (1 Bft) SW 225 10 min 0,102 mm 207 W/m 1,1 C 7,9 C 16,1 km/h (3 Bft) 100 %
12.02.2014 16:10 7,9 C 7,8 C 7,9 C 63 % 1010,0 hPa 0,0 l/m 3,2 km/h (1 Bft) S-SW 202 0 min 0,000 mm 151 W/m 1,3 C 7,9 C 11,3 km/h (2 Bft) 100 %
12.02.2014 16:20 7,8 C 7,8 C 7,9 C 62 % 1010,0 hPa 0,0 l/m 6,4 km/h (2 Bft) SW 225 0 min 0,000 mm 33 W/m 1,0 C 7,8 C 16,1 km/h (3 Bft) 100 %
12.02.2014 16:30 7,5 C 7,5 C 7,8 C 63 % 1009,5 hPa 0,0 l/m 3,2 km/h (1 Bft) S-SW 202 0 min 0,000 mm 33 W/m 0,9 C 7,5 C 14,5 km/h (3 Bft) 100 %
12.02.2014 16:40 7,3 C 7,3 C 7,5 C 64 % 1009,4 hPa 0,0 l/m 1,6 km/h (1 Bft) S-SW 202 0 min 0,000 mm 26 W/m 1,0 C 7,3 C 8,0 km/h (2 Bft) 100 %
12.02.2014 16:50 6,9 C 6,9 C 7,3 C 65 % 1009,0 hPa 0,0 l/m 3,2 km/h (1 Bft) S-SW 202 0 min 0,000 mm 25 W/m 0,8 C 6,9 C 8,0 km/h (2 Bft) 100 %
12.02.2014 17:00 6,6 C 6,6 C 6,9 C 66 % 1008,9 hPa 0,0 l/m 1,6 km/h (1 Bft) S-SO 157 0 min 0,025 mm 21 W/m 0,7 C 6,6 C 9,7 km/h (2 Bft) 100 %
12.02.2014 17:10 6,3 C 6,3 C 6,6 C 67 % 1008,8 hPa 0,0 l/m 1,6 km/h (1 Bft) S 180 0 min 0,000 mm 18 W/m 0,6 C 6,3 C 6,4 km/h (2 Bft) 98 %
12.02.2014 17:20 6,1 C 6,1 C 6,3 C 68 % 1008,6 hPa 0,0 l/m 0,0 km/h (0 Bft) SO 135 0 min 0,000 mm 12 W/m 0,6 C 6,1 C 4,8 km/h (1 Bft) 98 %
12.02.2014 17:30 5,8 C 5,8 C 6,3 C 68 % 1008,3 hPa 0,0 l/m 2,2 km/h (1 Bft) O-SO 111 0 min 0,000 mm 0 W/m 0,4 C 5,8 C 3,2 km/h (1 Bft) 100 %
12.02.2014 17:40 5,5 C 5,5 C 5,8 C 69 % 1008,1 hPa 0,0 l/m 0,4 km/h (0 Bft) O-SO 109 0 min 0,000 mm 0 W/m 0,3 C 5,5 C 4,8 km/h (1 Bft) 99 %
12.02.2014 17:50 5,1 C 5,1 C 5,5 C 71 % 1008,1 hPa 0,0 l/m 0,0 km/h (0 Bft) O-SO 109 0 min 0,000 mm 0 W/m 0,3 C 5,1 C 1,6 km/h (1 Bft) 100 %
12.02.2014 18:00 4,7 C 4,7 C 5,1 C 72 % 1008,0 hPa 0,0 l/m 0,0 km/h (0 Bft) O-SO 109 0 min 0,000 mm 0 W/m 0,1 C 4,7 C 0,0 km/h (0 Bft) 100 %
12.02.2014 18:10 4,3 C 4,3 C 4,7 C 73 % 1008,1 hPa 0,0 l/m 0,0 km/h (0 Bft) O-SO 109 0 min 0,000 mm 0 W/m -0,1 C 4,3 C 1,6 km/h (1 Bft) 100 %
12.02.2014 18:20 4,1 C 4,1 C 4,3 C 74 % 1007,8 hPa 0,0 l/m 0,0 km/h (0 Bft) O-SO 109 0 min 0,000 mm 0 W/m -0,1 C 4,1 C 1,6 km/h (1 Bft) 100 %
12.02.2014 18:30 3,8 C 3,8 C 4,1 C 75 % 1007,6 hPa 0,0 l/m 0,2 km/h (0 Bft) SO 124 0 min 0,000 mm 0 W/m -0,2 C 3,8 C 3,2 km/h (1 Bft) 100 %
12.02.2014 18:40 3,6 C 3,6 C 3,8 C 76 % 1007,5 hPa 0,0 l/m 0,2 km/h (0 Bft) O-SO 123 0 min 0,000 mm 0 W/m -0,2 C 3,6 C 3,2 km/h (1 Bft) 99 %
12.02.2014 18:50 3,4 C 3,4 C 3,6 C 76 % 1007,4 hPa 0,0 l/m 0,4 km/h (0 Bft) SO 135 0 min 0,000 mm 0 W/m -0,4 C 3,4 C 6,4 km/h (2 Bft) 99 %
12.02.2014 19:00 3,6 C 3,3 C 3,6 C 75 % 1007,0 hPa 0,0 l/m 1,6 km/h (1 Bft) SO 138 0 min 0,026 mm 0 W/m -0,4 C 3,6 C 8,0 km/h (2 Bft) 99 %
12.02.2014 19:10 4,2 C 3,6 C 4,2 C 72 % 1006,7 hPa 0,0 l/m 6,3 km/h (2 Bft) SO 128 0 min 0,000 mm 0 W/m -0,4 C 4,2 C 17,7 km/h (3 Bft) 100 %
12.02.2014 19:20 4,5 C 4,2 C 4,5 C 71 % 1006,4 hPa 0,0 l/m 7,0 km/h (2 Bft) SO 131 0 min 0,000 mm 0 W/m -0,3 C 4,0 C 17,7 km/h (3 Bft) 100 %
12.02.2014 19:30 4,7 C 4,5 C 4,7 C 69 % 1006,6 hPa 0,0 l/m 6,6 km/h (2 Bft) SO 136 0 min 0,000 mm 0 W/m -0,5 C 4,5 C 19,3 km/h (3 Bft) 100 %
12.02.2014 19:40 4,4 C 4,4 C 4,7 C 70 % 1006,5 hPa 0,0 l/m 2,1 km/h (1 Bft) SO 133 0 min 0,000 mm 0 W/m -0,6 C 4,4 C 9,7 km/h (2 Bft) 99 %
12.02.2014 19:50 4,3 C 4,3 C 4,4 C 70 % 1006,7 hPa 0,0 l/m 0,7 km/h (0 Bft) SO 146 0 min 0,000 mm 0 W/m -0,7 C 4,3 C 6,4 km/h (2 Bft) 100 %
12.02.2014 20:00 4,3 C 4,3 C 4,4 C 70 % 1006,5 hPa 0,0 l/m 1,6 km/h (1 Bft) SO 138 0 min 0,025 mm 0 W/m -0,7 C 4,3 C 9,7 km/h (2 Bft) 100 %
12.02.2014 20:10 4,4 C 4,2 C 4,4 C 69 % 1006,4 hPa 0,0 l/m 3,2 km/h (1 Bft) SO 140 0 min 0,000 mm 0 W/m -0,8 C 4,4 C 11,3 km/h (2 Bft) 99 %
12.02.2014 20:20 4,1 C 4,1 C 4,4 C 71 % 1006,3 hPa 0,0 l/m 1,6 km/h (1 Bft) S-SO 147 0 min 0,000 mm 0 W/m -0,7 C 4,1 C 8,0 km/h (2 Bft) 100 %
12.02.2014 20:30 4,1 C 3,8 C 4,1 C 71 % 1006,0 hPa 0,0 l/m 5,4 km/h (1 Bft) O-SO 114 0 min 0,000 mm 0 W/m -0,7 C 4,1 C 11,3 km/h (2 Bft) 100 %
12.02.2014 20:40 4,4 C 4,1 C 4,4 C 70 % 1005,8 hPa 0,0 l/m 6,1 km/h (2 Bft) SO 126 0 min 0,000 mm 0 W/m -0,6 C 4,4 C 17,7 km/h (3 Bft) 99 %
12.02.2014 20:50 4,6 C 4,4 C 4,6 C 69 % 1005,6 hPa 0,0 l/m 6,8 km/h (2 Bft) SO 145 0 min 0,000 mm 0 W/m -0,6 C 4,3 C 19,3 km/h (3 Bft) 100 %
12.02.2014 21:00 4,7 C 4,6 C 4,7 C 69 % 1005,4 hPa 0,0 l/m 8,3 km/h (2 Bft) S-SO 147 0 min 0,026 mm 0 W/m -0,5 C 3,0 C 22,5 km/h (4 Bft) 91 %
12.02.2014 21:10 4,5 C 4,5 C 4,7 C 69 % 1005,5 hPa 0,0 l/m 4,8 km/h (1 Bft) S-SO 157 0 min 0,000 mm 0 W/m -0,7 C 4,5 C 11,3 km/h (2 Bft) 97 %
12.02.2014 21:20 4,4 C 4,4 C 4,5 C 70 % 1005,4 hPa 0,0 l/m 3,2 km/h (1 Bft) S-SO 157 0 min 0,000 mm 0 W/m -0,6 C 4,4 C 11,3 km/h (2 Bft) 97 %
12.02.2014 21:30 4,1 C 4,1 C 4,4 C 71 % 1005,2 hPa 0,0 l/m 1,6 km/h (1 Bft) S-SO 157 0 min 0,000 mm 0 W/m -0,7 C 4,1 C 8,0 km/h (2 Bft) 98 %
12.02.2014 21:40 4,1 C 4,1 C 4,1 C 71 % 1005,2 hPa 0,0 l/m 1,6 km/h (1 Bft) S-SO 157 0 min 0,000 mm 0 W/m -0,7 C 4,1 C 9,7 km/h (2 Bft) 98 %
12.02.2014 21:50 3,9 C 3,9 C 4,1 C 72 % 1005,1 hPa 0,0 l/m 1,6 km/h (1 Bft) S-SO 157 0 min 0,000 mm 0 W/m -0,7 C 3,9 C 8,0 km/h (2 Bft) 97 %
12.02.2014 22:00 4,1 C 3,8 C 4,1 C 71 % 1004,9 hPa 0,0 l/m 3,2 km/h (1 Bft) SO 135 0 min 0,025 mm 0 W/m -0,7 C 4,1 C 11,3 km/h (2 Bft) 99 %
12.02.2014 22:10 4,4 C 4,2 C 4,4 C 69 % 1004,6 hPa 0,0 l/m 3,2 km/h (1 Bft) SO 135 0 min 0,000 mm 0 W/m -0,8 C 4,4 C 14,5 km/h (3 Bft) 98 %
12.02.2014 22:20 4,7 C 4,4 C 4,7 C 69 % 1004,5 hPa 0,0 l/m 4,8 km/h (1 Bft) SO 135 0 min 0,000 mm 0 W/m -0,5 C 4,7 C 16,1 km/h (3 Bft) 99 %
12.02.2014 22:30 4,8 C 4,7 C 4,8 C 69 % 1004,5 hPa 0,0 l/m 3,2 km/h (1 Bft) SO 135 0 min 0,000 mm 0 W/m -0,4 C 4,8 C 9,7 km/h (2 Bft) 100 %
12.02.2014 22:40 4,5 C 4,5 C 4,8 C 71 % 1004,5 hPa 0,0 l/m 1,6 km/h (1 Bft) S-SW 202 0 min 0,000 mm 0 W/m -0,3 C 4,5 C 8,0 km/h (2 Bft) 100 %
12.02.2014 22:50 4,1 C 4,1 C 4,4 C 72 % 1004,7 hPa 0,0 l/m 0,0 km/h (0 Bft) S-SW 202 0 min 0,000 mm 0 W/m -0,5 C 4,1 C 3,2 km/h (1 Bft) 100 %
12.02.2014 23:00 3,7 C 3,7 C 4,1 C 73 % 1004,6 hPa 0,0 l/m 0,0 km/h (0 Bft) S-SW 202 0 min 0,025 mm 0 W/m -0,7 C 3,7 C 3,2 km/h (1 Bft) 100 %
12.02.2014 23:10 3,9 C 3,7 C 3,9 C 73 % 1004,5 hPa 0,0 l/m 0,0 km/h (0 Bft) S-SO 157 0 min 0,000 mm 0 W/m -0,5 C 3,9 C 4,8 km/h (1 Bft) 100 %
12.02.2014 23:20 4,0 C 3,9 C 4,0 C 73 % 1004,4 hPa 0,0 l/m 1,6 km/h (1 Bft) S-SO 157 0 min 0,000 mm 0 W/m -0,4 C 4,0 C 9,7 km/h (2 Bft) 99 %
12.02.2014 23:30 4,3 C 4,0 C 4,3 C 73 % 1004,4 hPa 0,0 l/m 3,2 km/h (1 Bft) S-SO 157 0 min 0,000 mm 0 W/m -0,1 C 4,3 C 11,3 km/h (2 Bft) 100 %
12.02.2014 23:40 4,0 C 4,0 C 4,3 C 74 % 1004,6 hPa 0,0 l/m 1,6 km/h (1 Bft) SW 225 0 min 0,000 mm 0 W/m -0,2 C 4,0 C 6,4 km/h (2 Bft) 100 %
12.02.2014 23:50 3,7 C 3,7 C 4,0 C 74 % 1004,2 hPa 0,0 l/m 1,6 km/h (1 Bft) S-SW 202 0 min 0,000 mm 0 W/m -0,5 C 3,7 C 6,4 km/h (2 Bft) 100 %
_ Min-Zeit 01:00 01:00 01:00 16:00 23:50 - 00:00 - - - - - 01:00 01:00 00:00 02:00
Minimum _ -0,3 C -0,3 C -0,1 C 62 % 1004,2 hPa - 0,0 km/h (0 Bft) - - - - - -2,0 C -0,3 C 0,0 km/h (0 Bft) 82 %
_ Max-Zeit 16:00 16:00 16:00 04:50 12:00 05:30 11:50 - - 10:00 14:00 14:00 10:30 16:00 11:50 00:50
Maximum _ 7,9 C 7,8 C 7,9 C 92 % 1012,8 hPa 0,1 l/m 12,9 km/h
W (3 Bft)
- - 10 min 0,102 mm 547 W/m 1,9 C 7,9 C 29,0 km/h
W (5 Bft)
100 %
Durchschnitt _ 3,4 C 3,3 C 3,5 C 78 % 1008,9 hPa #0,1 l/m 3,8 km/h (1 Bft) S-SO - #3:20 h #0,660 mm 139 W/m -0,1 C 3,1 C 10,6 km/h (2 Bft) 99 %
PRIVATE WETTERSTATION BILLIGHEIM-ALLFELD - www.neckar-odenwald-wetter.de - Holger Sonntag